Time;durP1;ratioP1;P1;durP2;ratioP2;P2;SDS_P1;SDS_P2;PMS_P1;PMS_P2;Temp;Humidity;BMP_temperature;BMP_pressure;BME280_temperature;BME280_humidity;BME280_pressure;Samples;Min_cycle;Max_cycle;Signal;HPM_P1;HPM_P2
2022/07/04 00:03:16;;;;;;;5.10;1.20;;;;;;;-148.56;100.00;61375.16;5074512;28;20123;-37
2022/07/04 00:06:40;;;;;;;4.47;1.27;;;;;;;-148.56;100.00;61375.16;5064408;28;20702;-34
2022/07/04 00:10:04;;;;;;;3.67;1.42;;;;;;;-148.56;100.00;61375.16;5072650;28;20035;-38
2022/07/04 00:13:28;;;;;;;2.13;1.27;;;;;;;-148.56;100.00;61375.16;5074105;28;20624;-38
2022/07/04 00:16:52;;;;;;;3.67;1.30;;;;;;;-148.56;100.00;61375.16;5066764;28;20055;-31
2022/07/04 00:20:16;;;;;;;2.42;1.42;;;;;;;-148.56;100.00;61375.16;5063120;28;20028;-31
2022/07/04 00:23:39;;;;;;;5.50;1.48;;;;;;;-148.56;100.00;61375.16;5065289;28;20024;-33
2022/07/04 00:27:03;;;;;;;2.17;1.50;;;;;;;-148.56;100.00;61375.16;5065224;28;20023;-32
2022/07/04 00:30:27;;;;;;;1.85;1.05;;;;;;;-148.56;100.00;61375.16;5064338;28;20032;-33
2022/07/04 00:33:51;;;;;;;2.47;1.20;;;;;;;-148.56;100.00;61375.16;5064389;28;20197;-37
2022/07/04 00:37:15;;;;;;;5.45;1.50;;;;;;;-148.56;100.00;61375.16;5066414;28;21069;-35
2022/07/04 00:40:39;;;;;;;3.97;1.35;;;;;;;-148.56;100.00;61375.16;5054211;28;20162;-35
2022/07/04 00:44:03;;;;;;;6.00;1.33;;;;;;;-148.56;100.00;61375.16;5066288;28;21004;-35
2022/07/04 00:47:27;;;;;;;4.75;1.40;;;;;;;-148.56;100.00;61375.16;5063513;28;20245;-32
2022/07/04 00:50:51;;;;;;;6.65;1.25;;;;;;;-148.56;100.00;61375.16;5065742;28;20738;-37
2022/07/04 00:54:15;;;;;;;5.63;1.38;;;;;;;-148.56;100.00;61375.16;5064576;28;20031;-37
2022/07/04 00:57:40;;;;;;;3.28;1.30;;;;;;;-148.56;100.00;61375.16;5074376;28;20162;-39
2022/07/04 01:01:04;;;;;;;4.30;1.60;;;;;;;-148.56;100.00;61375.16;5069526;28;20032;-33
2022/07/04 01:04:28;;;;;;;3.75;1.30;;;;;;;-148.56;100.00;61375.16;5059736;28;20046;-35
2022/07/04 01:07:52;;;;;;;4.15;1.33;;;;;;;-148.56;100.00;61375.16;5066715;28;21572;-32
2022/07/04 01:11:16;;;;;;;3.47;1.40;;;;;;;-148.56;100.00;61375.16;5067264;28;20156;-37
2022/07/04 01:14:40;;;;;;;3.97;1.40;;;;;;;-148.56;100.00;61375.16;5060122;28;20031;-36
2022/07/04 01:18:04;;;;;;;2.15;1.42;;;;;;;-148.56;100.00;61375.16;5064848;28;20108;-35
2022/07/04 01:21:31;;;;;;;2.38;1.10;;;;;;;-148.56;100.00;61375.16;5066157;28;20355;-38
2022/07/04 01:24:55;;;;;;;3.45;1.50;;;;;;;-148.56;100.00;61375.16;5071347;28;20126;-34
2022/07/04 01:28:20;;;;;;;5.72;1.48;;;;;;;-148.56;100.00;61375.16;5069478;28;21273;-34
2022/07/04 01:31:44;;;;;;;6.53;1.40;;;;;;;-148.56;100.00;61375.16;5068505;28;20042;-31
2022/07/04 01:35:10;;;;;;;2.80;1.48;;;;;;;-148.56;100.00;61375.16;5067933;28;20042;-35
2022/07/04 01:38:34;;;;;;;4.18;1.70;;;;;;;-148.56;100.00;61375.16;5070466;28;20799;-33
2022/07/04 01:41:58;;;;;;;2.67;1.27;;;;;;;-148.56;100.00;61375.16;5074724;28;20150;-33
2022/07/04 01:45:22;;;;;;;4.38;1.48;;;;;;;-148.56;100.00;61375.16;5066208;28;20038;-32
2022/07/04 01:48:46;;;;;;;4.20;1.25;;;;;;;-148.56;100.00;61375.16;5068702;28;20716;-38
2022/07/04 01:52:09;;;;;;;2.35;1.23;;;;;;;-148.56;100.00;61375.16;5068146;28;20051;-32
2022/07/04 01:55:33;;;;;;;3.17;1.00;;;;;;;-148.56;100.00;61375.16;5065851;28;20039;-32
2022/07/04 01:58:59;;;;;;;3.22;1.40;;;;;;;-148.56;100.00;61375.16;5065621;28;22053;-33
2022/07/04 02:02:23;;;;;;;3.42;1.00;;;;;;;-148.56;100.00;61375.16;5069657;28;21205;-33
2022/07/04 02:05:47;;;;;;;4.97;1.10;;;;;;;-148.56;100.00;61375.16;5065074;28;20924;-33
2022/07/04 02:09:16;;;;;;;2.90;1.10;;;;;;;-148.56;100.00;61375.16;5067794;28;20062;-36
2022/07/04 02:16:23;;;;;;;2.95;1.33;;;;;;;-148.56;100.00;61375.16;5071323;28;20097;-33
2022/07/04 02:19:47;;;;;;;4.35;1.35;;;;;;;-148.56;100.00;61375.16;5063786;28;20024;-35
2022/07/04 02:23:11;;;;;;;2.90;1.20;;;;;;;-148.56;100.00;61375.16;5067881;28;20024;-34
2022/07/04 02:26:35;;;;;;;2.75;1.17;;;;;;;-148.56;100.00;61375.16;5066626;28;20039;-33
2022/07/04 02:29:59;;;;;;;5.20;1.42;;;;;;;-148.56;100.00;61375.16;5073008;28;20450;-32
2022/07/04 02:33:23;;;;;;;5.20;1.38;;;;;;;-148.56;100.00;61375.16;5068804;28;20390;-33
2022/07/04 02:36:47;;;;;;;4.03;1.40;;;;;;;-148.56;100.00;61375.16;5067258;28;20777;-33
2022/07/04 02:40:11;;;;;;;6.72;1.40;;;;;;;-148.56;100.00;61375.16;5061273;28;20118;-36
2022/07/04 02:43:35;;;;;;;4.40;1.58;;;;;;;-148.56;100.00;61375.16;5069462;28;20031;-35
2022/07/04 02:47:00;;;;;;;5.22;1.60;;;;;;;-148.56;100.00;61375.16;5066648;28;20114;-37
2022/07/04 02:50:24;;;;;;;2.25;1.35;;;;;;;-148.56;100.00;61375.16;5068996;28;20059;-34
2022/07/04 02:53:47;;;;;;;3.58;1.40;;;;;;;-148.56;100.00;61375.16;5058261;28;20028;-31
2022/07/04 02:57:11;;;;;;;3.70;1.42;;;;;;;-148.56;100.00;61375.16;5072450;28;20043;-34
2022/07/04 03:00:35;;;;;;;2.50;1.25;;;;;;;-148.56;100.00;61375.16;5067619;28;20680;-32
2022/07/04 03:03:59;;;;;;;3.15;1.50;;;;;;;-148.56;100.00;61375.16;5067315;28;20100;-32
2022/07/04 03:07:23;;;;;;;4.15;1.52;;;;;;;-148.56;100.00;61375.16;5066340;28;20035;-31
2022/07/04 03:10:48;;;;;;;3.55;1.42;;;;;;;-148.56;100.00;61375.16;5068144;28;20027;-38
2022/07/04 03:14:12;;;;;;;3.85;1.55;;;;;;;-148.56;100.00;61375.16;5063871;28;20487;-34
2022/07/04 03:17:36;;;;;;;4.30;1.50;;;;;;;-148.56;100.00;61375.16;5067146;28;20028;-35
2022/07/04 03:21:00;;;;;;;2.80;1.40;;;;;;;-148.56;100.00;61375.16;5066357;28;20043;-36
2022/07/04 03:24:24;;;;;;;5.60;1.52;;;;;;;-148.56;100.00;61375.16;5073268;28;20062;-31
2022/07/04 03:27:48;;;;;;;2.60;1.40;;;;;;;-148.56;100.00;61375.16;5074043;28;20066;-39
2022/07/04 03:31:12;;;;;;;5.18;1.33;;;;;;;-148.56;100.00;61375.16;5076493;28;20036;-34
2022/07/04 03:34:35;;;;;;;2.45;1.35;;;;;;;-148.56;100.00;61375.16;5073990;28;20614;-36
2022/07/04 03:37:59;;;;;;;3.20;1.40;;;;;;;-148.56;100.00;61375.16;5076081;28;20032;-32
2022/07/04 03:41:23;;;;;;;8.07;1.80;;;;;;;-148.56;100.00;61375.16;5076905;28;20036;-37
2022/07/04 03:44:47;;;;;;;3.42;1.40;;;;;;;-148.56;100.00;61375.16;5076870;28;21344;-38
2022/07/04 03:48:11;;;;;;;4.38;1.67;;;;;;;-148.56;100.00;61375.16;5076519;28;20024;-34
2022/07/04 03:51:35;;;;;;;10.05;1.50;;;;;;;-148.56;100.00;61375.16;5056782;28;20034;-32
2022/07/04 03:54:59;;;;;;;3.53;1.23;;;;;;;-148.56;100.00;61375.16;5066190;28;20512;-34
2022/07/04 03:58:22;;;;;;;4.47;1.40;;;;;;;-148.56;100.00;61375.16;5066851;28;20036;-36
2022/07/04 04:01:46;;;;;;;3.47;1.48;;;;;;;-148.56;100.00;61375.16;5067661;28;20034;-31
2022/07/04 04:08:53;;;;;;;;;;;;;;;-148.56;100.00;61375.16;5065019;28;20092;-32
2022/07/04 04:12:16;;;;;;;4.35;1.33;;;;;;;-148.56;100.00;61375.16;5070115;28;19919;-34
2022/07/04 04:15:40;;;;;;;5.78;1.33;;;;;;;-148.56;100.00;61375.16;5067407;28;20045;-33
2022/07/04 04:19:04;;;;;;;3.75;1.50;;;;;;;-148.56;100.00;61375.16;5063533;28;20596;-34
2022/07/04 04:22:28;;;;;;;4.57;1.30;;;;;;;-148.56;100.00;61375.16;5064983;28;20055;-32
2022/07/04 04:25:52;;;;;;;1.75;0.93;;;;;;;-148.56;100.00;61375.16;5064991;28;20028;-34
2022/07/04 04:29:16;;;;;;;2.53;1.40;;;;;;;-148.56;100.00;61375.16;5066056;28;20042;-38
2022/07/04 04:32:40;;;;;;;3.10;1.30;;;;;;;-148.56;100.00;61375.16;5067726;28;20093;-31
2022/07/04 04:36:04;;;;;;;8.10;1.33;;;;;;;-148.56;100.00;61375.16;5068843;28;20036;-35
2022/07/04 04:39:28;;;;;;;3.88;1.38;;;;;;;-148.56;100.00;61375.16;5066675;28;20038;-37
2022/07/04 04:42:52;;;;;;;2.53;1.23;;;;;;;-148.56;100.00;61375.16;5073736;28;20032;-32
2022/07/04 04:46:16;;;;;;;2.45;1.35;;;;;;;-148.56;100.00;61375.16;5067587;28;20028;-30
2022/07/04 04:49:39;;;;;;;4.53;1.40;;;;;;;-148.56;100.00;61375.16;5061521;28;20032;-30
2022/07/04 04:53:03;;;;;;;3.13;1.60;;;;;;;-148.56;100.00;61375.16;5068555;28;20815;-35
2022/07/04 04:56:27;;;;;;;3.25;1.30;;;;;;;-148.56;100.00;61375.16;5074448;28;20043;-30
2022/07/04 04:59:51;;;;;;;3.05;1.35;;;;;;;-148.56;100.00;61375.16;5072621;28;20398;-30
2022/07/04 05:03:15;;;;;;;5.30;1.45;;;;;;;-148.56;100.00;61375.16;5071658;28;20023;-31
2022/07/04 05:06:39;;;;;;;6.13;1.48;;;;;;;-148.56;100.00;61375.16;5071731;28;20039;-30
2022/07/04 05:10:03;;;;;;;2.50;1.30;;;;;;;-148.56;100.00;61375.16;5070483;28;20082;-34
2022/07/04 05:13:27;;;;;;;3.75;1.40;;;;;;;-148.56;100.00;61375.16;5071235;28;20038;-33
2022/07/04 05:16:51;;;;;;;3.80;1.60;;;;;;;-148.56;100.00;61375.16;5069446;28;20650;-31
2022/07/04 05:20:15;;;;;;;3.17;1.67;;;;;;;-148.56;100.00;61375.16;5067857;28;20042;-36
2022/07/04 05:23:39;;;;;;;2.47;1.42;;;;;;;-148.56;100.00;61375.16;5072021;28;20477;-34
2022/07/04 05:27:03;;;;;;;3.88;1.73;;;;;;;-148.56;100.00;61375.16;5067160;28;22176;-31
2022/07/04 05:30:26;;;;;;;3.53;1.50;;;;;;;-148.56;100.00;61375.16;5072298;28;23866;-33
2022/07/04 05:33:51;;;;;;;5.35;1.40;;;;;;;-148.56;100.00;61375.16;5070352;28;20741;-36
2022/07/04 05:37:15;;;;;;;4.68;1.35;;;;;;;-148.56;100.00;61375.16;5069491;28;20824;-31
2022/07/04 05:40:39;;;;;;;3.67;1.50;;;;;;;-148.56;100.00;61375.16;5074115;28;20058;-34
2022/07/04 05:44:03;;;;;;;4.22;1.27;;;;;;;-148.56;100.00;61375.16;5070623;28;20042;-34
2022/07/04 05:47:27;;;;;;;4.93;1.33;;;;;;;-148.56;100.00;61375.16;5073053;28;20912;-37
2022/07/04 05:50:51;;;;;;;2.22;1.27;;;;;;;-148.56;100.00;61375.16;5071833;28;20517;-33
2022/07/04 05:54:14;;;;;;;3.78;1.42;;;;;;;-148.56;100.00;61375.16;5070074;28;20035;-34
2022/07/04 05:57:38;;;;;;;3.75;1.45;;;;;;;-148.56;100.00;61375.16;5070125;28;20030;-38
2022/07/04 06:01:02;;;;;;;7.53;1.58;;;;;;;-148.56;100.00;61375.16;5066292;28;20738;-35
2022/07/04 06:04:26;;;;;;;7.05;1.67;;;;;;;-148.56;100.00;61375.16;5063522;28;20028;-31
2022/07/04 06:07:50;;;;;;;4.75;1.63;;;;;;;-148.56;100.00;61375.16;5078436;28;20027;-35
2022/07/04 06:11:14;;;;;;;7.18;1.55;;;;;;;-148.56;100.00;61375.16;5082905;28;20856;-32
2022/07/04 06:14:38;;;;;;;6.70;1.63;;;;;;;-148.56;100.00;61375.16;5081663;28;20310;-31
2022/07/04 06:18:02;;;;;;;6.43;1.55;;;;;;;-148.56;100.00;61375.16;5078453;28;20071;-36
2022/07/04 06:21:26;;;;;;;3.75;1.40;;;;;;;-148.56;100.00;61375.16;5074510;28;20024;-33
2022/07/04 06:24:50;;;;;;;4.68;1.63;;;;;;;-148.56;100.00;61375.16;5074756;28;20076;-31
2022/07/04 06:28:14;;;;;;;5.75;1.60;;;;;;;-148.56;100.00;61375.16;5076353;28;20696;-31
2022/07/04 06:31:38;;;;;;;5.75;1.52;;;;;;;-148.56;100.00;61375.16;5078982;28;20031;-35
2022/07/04 06:38:44;;;;;;;10.55;1.73;;;;;;;-148.56;100.00;61375.16;5066798;28;20912;-37
2022/07/04 06:42:08;;;;;;;9.25;2.47;;;;;;;-148.56;100.00;61375.16;5065182;28;20118;-33
2022/07/04 06:45:33;;;;;;;7.65;1.70;;;;;;;-148.56;100.00;61375.16;5059267;28;20144;-32
2022/07/04 06:48:57;;;;;;;8.65;2.20;;;;;;;-148.56;100.00;61375.16;5068160;28;20044;-31
2022/07/04 06:52:21;;;;;;;4.78;1.80;;;;;;;-148.56;100.00;61375.16;5066149;28;20058;-32
2022/07/04 06:55:45;;;;;;;9.02;2.33;;;;;;;-148.56;100.00;61375.16;5064650;28;20023;-31
2022/07/04 06:59:09;;;;;;;10.27;2.30;;;;;;;-148.56;100.00;61375.16;5070132;28;20437;-35
2022/07/04 07:02:34;;;;;;;12.07;2.00;;;;;;;-148.56;100.00;61375.16;5071854;28;20032;-31
2022/07/04 07:05:57;;;;;;;6.53;1.90;;;;;;;-148.56;100.00;61375.16;5080189;28;20138;-31
2022/07/04 07:09:21;;;;;;;17.42;2.33;;;;;;;-148.56;100.00;61375.16;5076696;28;20043;-30
2022/07/04 07:12:45;;;;;;;15.77;2.40;;;;;;;-148.56;100.00;61375.16;5073621;28;20085;-32
2022/07/04 07:16:09;;;;;;;9.30;2.30;;;;;;;-148.56;100.00;61375.16;5072856;28;20023;-33
2022/07/04 07:19:33;;;;;;;11.18;2.00;;;;;;;-148.56;100.00;61375.16;5045028;28;20421;-36
2022/07/04 07:22:57;;;;;;;7.63;1.88;;;;;;;-148.56;100.00;61375.16;5057262;28;20035;-31
2022/07/04 07:26:21;;;;;;;13.65;2.28;;;;;;;-148.56;100.00;61375.16;5069998;28;20057;-31
2022/07/04 07:29:45;;;;;;;11.93;2.40;;;;;;;-148.56;100.00;61375.16;5070365;28;20069;-31
2022/07/04 07:33:09;;;;;;;13.07;2.20;;;;;;;-148.56;100.00;61375.16;5068623;28;20134;-30
2022/07/04 07:36:33;;;;;;;17.70;2.28;;;;;;;-148.56;100.00;61375.16;5070780;28;20023;-30
2022/07/04 07:39:57;;;;;;;20.80;2.35;;;;;;;-148.56;100.00;61375.16;5065628;28;20074;-30
2022/07/04 07:43:23;;;;;;;9.48;2.45;;;;;;;-148.56;100.00;61375.16;5060581;28;20032;-30
2022/07/04 07:46:47;;;;;;;11.48;1.92;;;;;;;-148.56;100.00;61375.16;5063568;28;20043;-29
2022/07/04 07:50:11;;;;;;;8.15;2.30;;;;;;;-148.56;100.00;61375.16;5066924;28;20024;-30
2022/07/04 07:53:35;;;;;;;13.13;2.10;;;;;;;-148.56;100.00;61375.16;5066009;28;20957;-30
2022/07/04 07:56:59;;;;;;;12.20;2.20;;;;;;;-148.56;100.00;61375.16;5067074;28;20476;-30
2022/07/04 08:00:23;;;;;;;12.80;2.20;;;;;;;-148.56;100.00;61375.16;5068910;28;20038;-29
2022/07/04 08:07:29;;;;;;;;;;;;;;;-148.56;100.00;61375.16;5065109;28;20842;-32
2022/07/04 08:10:53;;;;;;;8.50;1.98;;;;;;;-148.56;100.00;61375.16;5065981;28;19920;-31
2022/07/04 08:14:17;;;;;;;17.27;2.55;;;;;;;-148.56;100.00;61375.16;5069377;28;20032;-31
2022/07/04 08:17:41;;;;;;;18.55;2.63;;;;;;;-148.56;100.00;61375.16;5067953;28;20038;-31
2022/07/04 08:21:05;;;;;;;26.45;2.53;;;;;;;-148.56;100.00;61375.16;5053071;28;20036;-30
2022/07/04 08:24:29;;;;;;;19.23;2.80;;;;;;;-148.56;100.00;61375.16;5066715;28;20028;-30
2022/07/04 08:27:53;;;;;;;8.05;2.38;;;;;;;-148.56;100.00;61375.16;5078357;28;20038;-34
2022/07/04 08:31:18;;;;;;;10.70;2.40;;;;;;;-148.56;100.00;61375.16;5079690;28;20027;-31
2022/07/04 08:34:42;;;;;;;14.65;2.45;;;;;;;-148.56;100.00;61375.16;5070668;28;20039;-31
2022/07/04 08:38:06;;;;;;;15.77;2.63;;;;;;;-148.56;100.00;61375.16;5065768;28;20141;-31
2022/07/04 08:41:35;;;;;;;11.75;2.63;;;;;;;-148.56;100.00;61375.16;5061990;28;20023;-31
2022/07/04 08:44:59;;;;;;;7.85;2.42;;;;;;;-148.56;100.00;61375.16;5063296;28;20040;-31
2022/07/04 08:48:24;;;;;;;7.90;2.50;;;;;;;-148.56;100.00;61375.16;5042259;28;20035;-32
2022/07/04 08:51:55;;;;;;;11.32;2.13;;;;;;;-148.56;100.00;61375.16;5064601;28;20027;-32
2022/07/04 08:59:02;;;;;;;8.07;1.98;;;;;;;-148.56;100.00;61375.16;5042343;28;20046;-32
2022/07/04 09:02:27;;;;;;;12.15;2.25;;;;;;;-148.56;100.00;61375.16;5039218;28;20120;-33
2022/07/04 09:05:51;;;;;;;10.60;2.40;;;;;;;-148.56;100.00;61375.16;5060007;28;20029;-33
2022/07/04 09:09:15;;;;;;;13.05;2.55;;;;;;;-148.56;100.00;61375.16;5064246;28;20271;-34
2022/07/04 09:12:38;;;;;;;12.73;2.90;;;;;;;-148.56;100.00;61375.16;5058147;28;20150;-34
2022/07/04 09:16:03;;;;;;;12.27;2.78;;;;;;;-148.56;100.00;61375.16;5062995;28;22125;-31
2022/07/04 09:19:27;;;;;;;14.15;4.00;;;;;;;-148.56;100.00;61375.16;5059992;28;21367;-31
2022/07/04 09:22:52;;;;;;;34.03;4.05;;;;;;;-148.56;100.00;61375.16;5066679;28;20028;-33
2022/07/04 09:26:19;;;;;;;16.25;4.05;;;;;;;-148.56;100.00;61375.16;5068101;28;20080;-32
2022/07/04 09:29:52;;;;;;;14.35;3.72;;;;;;;-148.56;100.00;61375.16;5069840;28;20040;-32
2022/07/04 09:33:23;;;;;;;15.55;4.00;;;;;;;-148.56;100.00;61375.16;5069393;28;20154;-31
2022/07/04 09:36:47;;;;;;;11.00;3.78;;;;;;;-148.56;100.00;61375.16;5068908;28;20061;-32
2022/07/04 09:40:20;;;;;;;13.55;3.92;;;;;;;-148.56;100.00;61375.16;5066668;28;20315;-31
2022/07/04 09:43:59;;;;;;;11.25;3.90;;;;;;;-148.56;100.00;61375.16;5069555;28;20081;-34
2022/07/04 09:47:27;;;;;;;12.65;3.83;;;;;;;-148.56;100.00;61375.16;5071339;28;20024;-32
2022/07/04 09:51:03;;;;;;;15.45;4.10;;;;;;;-148.56;100.00;61375.16;5073564;28;20049;-36
2022/07/04 09:54:31;;;;;;;10.18;3.15;;;;;;;-148.56;100.00;61375.16;5068969;28;20486;-32
2022/07/04 09:57:58;;;;;;;13.10;3.72;;;;;;;-148.56;100.00;61375.16;5068142;28;20110;-31
2022/07/04 10:01:25;;;;;;;13.15;3.72;;;;;;;-148.56;100.00;61375.16;5071822;28;20032;-31
2022/07/04 10:04:54;;;;;;;8.38;3.33;;;;;;;-148.56;100.00;61375.16;5069795;28;20058;-37
2022/07/04 10:08:30;;;;;;;10.65;3.72;;;;;;;-148.56;100.00;61375.16;5071543;28;20116;-31
2022/07/04 10:11:55;;;;;;;9.13;3.53;;;;;;;-148.56;100.00;61375.16;5072711;28;20028;-31
2022/07/04 10:15:19;;;;;;;10.43;3.40;;;;;;;-148.56;100.00;61375.16;5077980;28;20054;-32
2022/07/04 10:18:43;;;;;;;11.85;3.40;;;;;;;-148.56;100.00;61375.16;5067889;28;20067;-33
2022/07/04 10:22:06;;;;;;;8.23;2.80;;;;;;;-148.56;100.00;61375.16;5072979;28;20096;-32
2022/07/04 10:25:30;;;;;;;6.55;2.85;;;;;;;-148.56;100.00;61375.16;5054707;28;20034;-39
2022/07/04 10:28:54;;;;;;;6.88;2.97;;;;;;;-148.56;100.00;61375.16;5070648;28;20032;-34
2022/07/04 10:32:19;;;;;;;9.40;3.25;;;;;;;-148.56;100.00;61375.16;5065303;28;20031;-32
2022/07/04 10:35:49;;;;;;;10.50;3.00;;;;;;;-148.56;100.00;61375.16;5064702;28;20031;-34
2022/07/04 10:39:13;;;;;;;5.55;2.90;;;;;;;-148.56;100.00;61375.16;5069215;28;20477;-33
2022/07/04 10:42:37;;;;;;;5.28;2.72;;;;;;;-148.56;100.00;61375.16;5049324;28;20671;-34
2022/07/04 10:46:10;;;;;;;8.55;3.10;;;;;;;-148.56;100.00;61375.16;5059034;28;20103;-34
2022/07/04 10:49:34;;;;;;;;;;;;;;;-148.56;100.00;61375.16;5069274;28;20046;-35
2022/07/04 10:53:10;;;;;;;6.13;2.58;;;;;;;-148.56;100.00;61375.16;5069611;28;19927;-30
2022/07/04 10:56:38;;;;;;;5.80;2.55;;;;;;;-148.56;100.00;61375.16;5075157;28;20063;-37
2022/07/04 11:00:31;;;;;;;6.47;2.80;;;;;;;-148.56;100.00;61375.16;5078876;28;20271;-34
2022/07/04 11:04:13;;;;;;;6.60;2.38;;;;;;;-148.56;100.00;61375.16;5055460;28;20031;-37
2022/07/04 11:07:37;;;;;;;4.95;2.40;;;;;;;-148.56;100.00;61375.16;5059410;28;20116;-37
2022/07/04 11:11:29;;;;;;;5.35;2.33;;;;;;;-148.56;100.00;61375.16;5060266;28;20028;-33
2022/07/04 11:15:12;;;;;;;4.75;2.50;;;;;;;-148.56;100.00;61375.16;5057057;28;20046;-38
2022/07/04 11:18:39;;;;;;;7.10;2.33;;;;;;;-148.56;100.00;61375.16;5062225;28;20137;-32
2022/07/04 11:22:14;;;;;;;8.57;2.53;;;;;;;-148.56;100.00;61375.16;5060141;28;20746;-35
2022/07/04 11:25:38;;;;;;;4.43;2.40;;;;;;;-148.56;100.00;61375.16;5058752;28;20032;-35
2022/07/04 11:29:21;;;;;;;5.53;2.53;;;;;;;-148.56;100.00;61375.16;5075601;28;20745;-37
2022/07/04 11:32:46;;;;;;;4.53;2.47;;;;;;;-148.56;100.00;61375.16;5075142;28;20032;-32
2022/07/04 11:36:09;;;;;;;7.80;2.40;;;;;;;-148.56;100.00;61375.16;5080418;28;20177;-34
2022/07/04 11:45:02;;;;;;;4.22;2.20;;;;;;;-148.56;100.00;61375.16;5071403;28;20119;-37
2022/07/04 11:47:49;;;;;;;6.70;2.40;;;;;;;-148.56;100.00;61375.16;5070351;28;20552;-34
2022/07/04 11:51:17;;;;;;;4.50;2.10;;;;;;;-148.56;100.00;61375.16;5069415;28;20047;-34
2022/07/04 11:54:42;;;;;;;3.60;1.85;;;;;;;-148.56;100.00;61375.16;5070202;28;20027;-32
2022/07/04 11:58:09;;;;;;;4.00;2.13;;;;;;;-148.56;100.00;61375.16;5069245;28;20128;-37
2022/07/04 12:01:32;;;;;;;2.78;1.50;;;;;;;-148.56;100.00;61375.16;5069062;28;20064;-36
2022/07/04 12:05:09;;;;;;;3.10;1.73;;;;;;;-148.56;100.00;61375.16;5065938;28;20027;-33
2022/07/04 12:08:37;;;;;;;5.13;2.15;;;;;;;-148.56;100.00;61375.16;5068890;28;20107;-37
2022/07/04 12:12:01;;;;;;;4.47;2.15;;;;;;;-148.56;100.00;61375.16;5072923;28;20028;-37
2022/07/04 12:15:26;;;;;;;7.53;1.95;;;;;;;-148.56;100.00;61375.16;5060635;28;20396;-36
2022/07/04 12:18:50;;;;;;;5.32;2.03;;;;;;;-148.56;100.00;61375.16;5036390;28;20104;-32
2022/07/04 12:22:23;;;;;;;3.60;1.90;;;;;;;-148.56;100.00;61375.16;5046165;28;20762;-36
2022/07/04 12:25:48;;;;;;;3.67;1.90;;;;;;;-148.56;100.00;61375.16;5059685;28;20478;-37
2022/07/04 12:29:19;;;;;;;9.05;2.00;;;;;;;-148.56;100.00;61375.16;5029478;28;20147;-39
2022/07/04 12:32:47;;;;;;;6.17;1.93;;;;;;;-148.56;100.00;61375.16;5031609;28;20028;-38
2022/07/04 12:36:52;;;;;;;4.57;1.70;;;;;;;-148.56;100.00;61375.16;5034393;28;20596;-38
2022/07/04 12:40:26;;;;;;;7.43;2.05;;;;;;;-148.56;100.00;61375.16;4930694;28;20228;-35
2022/07/04 12:43:54;;;;;;;10.18;1.83;;;;;;;-148.56;100.00;61375.16;4968512;28;20039;-37
2022/07/04 12:47:24;;;;;;;8.88;1.85;;;;;;;-148.56;100.00;61375.16;5036015;28;20150;-39
2022/07/04 12:50:48;;;;;;;3.45;1.75;;;;;;;-148.56;100.00;61375.16;5031430;28;20056;-37
2022/07/04 12:54:12;;;;;;;6.97;1.80;;;;;;;-148.56;100.00;61375.16;5035181;28;20034;-39
2022/07/04 12:57:37;;;;;;;6.03;1.60;;;;;;;-148.56;100.00;61375.16;5030584;28;20070;-34
2022/07/04 13:01:01;;;;;;;3.60;1.63;;;;;;;-148.56;100.00;61375.16;5036832;28;20118;-38
2022/07/04 13:04:25;;;;;;;6.50;1.90;;;;;;;-148.56;100.00;61375.16;5028770;28;20036;-40
2022/07/04 13:07:49;;;;;;;3.97;1.55;;;;;;;-148.56;100.00;61375.16;5035029;28;20038;-39
2022/07/04 13:14:56;;;;;;;4.80;1.52;;;;;;;-148.56;100.00;61375.16;5018639;28;21945;-35
2022/07/04 13:18:20;;;;;;;5.05;1.50;;;;;;;-148.56;100.00;61375.16;5021868;28;20115;-39
2022/07/04 13:21:44;;;;;;;5.78;1.58;;;;;;;-148.56;100.00;61375.16;5028586;28;20736;-37
2022/07/04 13:25:08;;;;;;;2.22;1.60;;;;;;;-148.56;100.00;61375.16;5024124;28;20032;-40
2022/07/04 13:28:32;;;;;;;4.32;1.50;;;;;;;-148.56;100.00;61375.16;5078261;28;20028;-38
2022/07/04 13:31:56;;;;;;;6.38;1.85;;;;;;;-148.56;100.00;61375.16;5073424;28;20024;-38
2022/07/04 13:35:20;;;;;;;2.90;1.40;;;;;;;-148.56;100.00;61375.16;5079561;28;20032;-37
2022/07/04 13:38:44;;;;;;;3.92;1.67;;;;;;;-148.56;100.00;61375.16;5068388;28;20423;-37
2022/07/04 13:42:08;;;;;;;3.03;1.42;;;;;;;-148.56;100.00;61375.16;5073047;28;20036;-40
2022/07/04 13:45:32;;;;;;;5.18;2.50;;;;;;;-148.56;100.00;61375.16;5046235;28;20116;-30
2022/07/04 13:48:56;;;;;;;16.40;11.00;;;;;;;-148.56;100.00;61375.16;5068253;28;20039;-35
2022/07/04 13:52:20;;;;;;;28.05;17.35;;;;;;;-148.56;100.00;61375.16;5070837;28;20035;-33
2022/07/04 13:55:44;;;;;;;30.45;16.55;;;;;;;-148.56;100.00;61375.16;5071490;28;20040;-39
2022/07/04 13:59:09;;;;;;;26.85;16.25;;;;;;;-148.56;100.00;61375.16;5057219;28;20031;-34
2022/07/04 14:02:33;;;;;;;24.95;14.93;;;;;;;-148.56;100.00;61375.16;5070835;28;20126;-34
2022/07/04 14:05:57;;;;;;;21.58;12.77;;;;;;;-148.56;100.00;61375.16;5064759;28;20049;-37
2022/07/04 14:09:21;;;;;;;23.17;11.05;;;;;;;-148.56;100.00;61375.16;5059677;28;20035;-33
2022/07/04 14:12:45;;;;;;;20.45;11.10;;;;;;;-148.56;100.00;61375.16;5067345;28;20043;-33
2022/07/04 14:16:09;;;;;;;16.42;9.20;;;;;;;-148.56;100.00;61375.16;5071157;28;20023;-32
2022/07/04 14:19:33;;;;;;;14.60;8.95;;;;;;;-148.56;100.00;61375.16;5069836;28;20027;-31
2022/07/04 14:22:57;;;;;;;14.73;8.52;;;;;;;-148.56;100.00;61375.16;5069461;28;21178;-34
2022/07/04 14:26:24;;;;;;;15.90;7.93;;;;;;;-148.56;100.00;61375.16;5067713;28;20024;-34
2022/07/04 14:29:48;;;;;;;11.98;6.53;;;;;;;-148.56;100.00;61375.16;5067518;28;20093;-32
2022/07/04 14:33:12;;;;;;;11.38;6.25;;;;;;;-148.56;100.00;61375.16;5061632;28;20034;-29
2022/07/04 14:36:36;;;;;;;13.40;6.22;;;;;;;-148.56;100.00;61375.16;5064938;28;20363;-38
2022/07/04 14:40:00;;;;;;;13.63;6.03;;;;;;;-148.56;100.00;61375.16;5070132;28;20121;-39
2022/07/04 14:43:24;;;;;;;15.10;5.82;;;;;;;-148.56;100.00;61375.16;5066845;28;20114;-32
2022/07/04 14:46:48;;;;;;;10.30;5.00;;;;;;;-148.56;100.00;61375.16;5067870;28;20030;-32
2022/07/04 14:50:11;;;;;;;11.75;5.60;;;;;;;-148.56;100.00;61375.16;5060645;28;20054;-37
2022/07/04 14:53:35;;;;;;;7.88;4.60;;;;;;;-148.56;100.00;61375.16;5066111;28;20819;-36
2022/07/04 14:56:59;;;;;;;6.85;4.20;;;;;;;-148.56;100.00;61375.16;5077027;28;20059;-34
2022/07/04 15:00:23;;;;;;;9.63;4.05;;;;;;;-148.56;100.00;61375.16;5064772;28;20035;-36
2022/07/04 15:03:47;;;;;;;12.23;3.75;;;;;;;-148.56;100.00;61375.16;5067667;28;20039;-39
2022/07/04 15:07:11;;;;;;;9.20;3.60;;;;;;;-148.56;100.00;61375.16;5067143;28;20099;-36
2022/07/04 15:10:35;;;;;;;8.45;3.30;;;;;;;-148.56;100.00;61375.16;5066971;28;20172;-36
2022/07/04 15:13:59;;;;;;;6.30;3.70;;;;;;;-148.56;100.00;61375.16;5069451;28;20062;-33
2022/07/04 15:17:23;;;;;;;11.20;3.35;;;;;;;-148.56;100.00;61375.16;5068280;28;20117;-38
2022/07/04 15:24:30;;;;;;;;;;;;;;;-148.56;100.00;61375.16;5077221;28;20043;-37
2022/07/04 15:27:54;;;;;;;6.75;3.35;;;;;;;-148.56;100.00;61375.16;5072156;28;20047;-38
2022/07/04 15:31:17;;;;;;;7.88;3.33;;;;;;;-148.56;100.00;61375.16;5075505;28;20070;-35
2022/07/04 15:34:41;;;;;;;10.50;3.10;;;;;;;-148.56;100.00;61375.16;5072623;28;20063;-31
2022/07/04 15:38:05;;;;;;;7.05;2.85;;;;;;;-148.56;100.00;61375.16;5076755;28;20465;-33
2022/07/04 15:41:29;;;;;;;7.53;2.60;;;;;;;-148.56;100.00;61375.16;5078664;28;20111;-36
2022/07/04 15:44:54;;;;;;;10.75;2.65;;;;;;;-148.56;100.00;61375.16;5077831;28;20034;-32
2022/07/04 15:48:17;;;;;;;12.25;3.35;;;;;;;-148.56;100.00;61375.16;5073514;28;20306;-35
2022/07/04 15:51:41;;;;;;;8.70;3.08;;;;;;;-148.56;100.00;61375.16;5068272;28;20583;-38
2022/07/04 15:55:05;;;;;;;9.98;3.50;;;;;;;-148.56;100.00;61375.16;5067480;28;20059;-31
2022/07/04 15:58:29;;;;;;;8.82;2.95;;;;;;;-148.56;100.00;61375.16;5066519;28;20136;-33
2022/07/04 16:01:53;;;;;;;9.80;2.85;;;;;;;-148.56;100.00;61375.16;5070072;28;20035;-37